Plainfield, MA (01070)

1:29 AM EDT on July 06, 2015 (GMT -0400)
Plainfield Public Safety Complex | | Change Station
CLOSE
Current Station
Personal Weather Station
Location: Plainfield, MA
Elevation: 1725 ft
Nearby Weather Stations

Elev 1725 ft 42.52 °N, 72.91 °W | Updated 47 seconds ago

Partly Cloudy
Partly Cloudy
60.1 °F
Feels Like 60.1 °F
N
0.0
Wind Variable Wind from North
Gusts 0.0 mph

Today
High -- | Low -- °F
--% Chance of Precip.
Yesterday
High -- | Low -- °F
Precip. -- in
5:20 AM 8:31 PM
Waning Gibbous, 79% visible
Pressure 30.17 in
Visibility 7.0 miles
Clouds Few 4200 ft
Mostly Cloudy 5000 ft
Overcast 6000 ft
Dew Point 58 °F
Humidity 93%
Rainfall 0.00 in
Snow Depth Not available.
UV 0 out of 12
Pollen 4.20 out of 12
Air Quality Not available.
Flu Activity Not available.
METAR KAQW 060452Z AUTO 00000KT 7SM FEW042 BKN050 OVC060 16/14 A3017 RMK AO2 SLP216 T01560139 402610133

More Conditions Fewer Conditions

Pressure 30.17 in
Visibility 7.0 miles
Clouds Few 4200 ft
Mostly Cloudy 5000 ft
Overcast 6000 ft
Dew Point 58 °F
Humidity 93%
Rainfall 0.00 in
Snow Depth Not available.
UV 0 out of 12
Pollen 4.20 out of 12
Air Quality Not available.
Flu Activity Not available.
METAR KAQW 060452Z AUTO 00000KT 7SM FEW042 BKN050 OVC060 16/14 A3017 RMK AO2 SLP216 T01560139 402610133

More Conditions Fewer Conditions

10-Day Weather Forecast

×

Almanac

Astronomy

Jul. 06, 2015 Rise Set
Actual Time
Civil Twilight
Nautical Twilight
Astronomical Twilight
Moon
Length of Visible Light
Length of Day
Tomorrow will be .
, % of the Moon is Illuminated

Today's Extremes

State Highs State Lows

Community

WunderPhotos

Upload Photos

1,835,489 photos uploaded!

WunderBlogs® & News

Nearby

Air Quality

  Air Quality AQ Index Pollutant
Not available.

Snow Depth

Station Depth Elevation

Earthquake Activity

City Distance Mag. Time & Date
Minimum magnitude displayed is 2.5.

Coastal Water Temperatures

Place Temperature

Stations

Nearby Weather Stations

Station Location Temp. Windchill Dew Point Humidity Wind Precip. Elev Updated Type